Weather at London Heathrow Airport

Public forecast

Using degrees Celsius for public forecast. Weather courtesy of forecast.io.

Current aviation weather report (METAR) for London Heathrow Airport

2022/11/30 11:20 (retrieved 38 minutes ago)

EGLL 301120Z AUTO 09004KT 050V120 9000 FEW008 OVC021 08/06 Q1025 NOSIG

Aviation forecast (TAF) for London Heathrow Airport

2022/11/30 10:40 Ammendment (retrieved 1 hour ago)

TAF AMD EGLL 301025Z 3010/0112 05005KT 8000 OVC007 BECMG 3010/3013 9999 SCT010 BECMG 3021/3024 5000 BR PROB30 0100/0110 0300 FG BKN000 PROB30 0110/0112 OVC003